createdAt,value
2018-09-03T00:00:50.836Z,2.87
2018-09-03T00:03:18.853Z,9.57
2018-09-03T00:05:47.925Z,8.60
2018-09-03T00:08:15.946Z,3.17
2018-09-03T00:10:44.137Z,2.83
2018-09-03T00:13:12.155Z,3.37
2018-09-03T00:15:40.317Z,7.30
2018-09-03T00:18:08.338Z,3.23
2018-09-03T00:20:36.344Z,4.57
2018-09-03T00:23:04.344Z,3.07
2018-09-03T00:25:32.352Z,3.77
2018-09-03T00:28:00.405Z,10.40
2018-09-03T00:30:28.417Z,3.47
2018-09-03T00:33:01.809Z,3.30
2018-09-03T00:35:35.234Z,3.07
2018-09-03T00:38:08.661Z,6.40
2018-09-03T00:40:41.974Z,3.60
2018-09-03T00:43:15.565Z,3.40
2018-09-03T00:45:49.163Z,4.43
2018-09-03T00:48:17.193Z,4.30
2018-09-03T00:50:45.196Z,10.20
2018-09-03T00:53:13.196Z,7.33
2018-09-03T00:55:41.293Z,3.50
2018-09-03T00:58:09.364Z,4.37
2018-09-03T01:00:37.406Z,9.30
2018-09-03T01:03:05.609Z,3.73
2018-09-03T01:05:33.842Z,4.10
2018-09-03T01:08:01.921Z,4.43
2018-09-03T01:10:29.914Z,4.30
2018-09-03T01:12:57.937Z,4.23
2018-09-03T01:15:29.496Z,3.97
2018-09-03T01:17:58.169Z,6.80
2018-09-03T01:20:26.197Z,4.23
2018-09-03T01:22:54.182Z,4.37
2018-09-03T01:25:22.306Z,4.57
2018-09-03T01:27:50.410Z,5.27
2018-09-03T01:30:18.437Z,4.37
2018-09-03T01:32:46.445Z,5.10
2018-09-03T01:35:14.505Z,7.00
2018-09-03T01:37:42.507Z,4.53
2018-09-03T01:40:10.717Z,5.07
2018-09-03T01:42:38.774Z,6.23
2018-09-03T01:45:06.773Z,5.90
2018-09-03T01:47:35.065Z,5.43
2018-09-03T01:50:03.048Z,10.03
2018-09-03T01:52:31.074Z,7.73
2018-09-03T01:54:59.113Z,5.70
2018-09-03T01:57:27.102Z,6.20
2018-09-03T01:59:55.196Z,5.40
2018-09-03T02:02:23.352Z,7.70
2018-09-03T02:04:51.354Z,5.37
2018-09-03T02:07:19.361Z,5.73
2018-09-03T02:09:47.386Z,6.60
2018-09-03T02:12:15.408Z,6.73
2018-09-03T02:14:44.228Z,5.80
2018-09-03T02:17:13.420Z,6.90
2018-09-03T02:19:41.490Z,5.80
2018-09-03T02:22:09.472Z,5.63
2018-09-03T02:24:37.756Z,9.53
2018-09-03T02:27:05.790Z,10.87
2018-09-03T02:29:33.800Z,5.93
2018-09-03T02:32:01.941Z,6.73
2018-09-03T02:34:30.101Z,6.30
2018-09-03T02:36:58.104Z,6.73
2018-09-03T02:39:26.096Z,6.83
2018-09-03T02:41:54.122Z,12.13
2018-09-03T02:44:22.130Z,6.80
2018-09-03T02:46:50.142Z,6.27
2018-09-03T02:49:18.159Z,9.30
2018-09-03T02:51:46.161Z,6.10
2018-09-03T02:54:14.204Z,10.03
2018-09-03T02:56:42.225Z,9.03
2018-09-03T02:59:10.245Z,10.50
2018-09-03T03:01:38.253Z,6.73
2018-09-03T03:04:06.277Z,11.03
2018-09-03T03:06:34.301Z,8.47
2018-09-03T03:09:02.380Z,8.50
2018-09-03T03:11:30.398Z,8.30
2018-09-03T03:13:58.405Z,7.37
2018-09-03T03:16:26.423Z,8.03
2018-09-03T03:18:54.613Z,8.70
2018-09-03T03:21:22.672Z,10.60
2018-09-03T03:23:50.724Z,8.10
2018-09-03T03:26:18.737Z,8.20
2018-09-03T03:28:46.784Z,7.37
2018-09-03T03:31:14.793Z,9.50
2018-09-03T03:33:42.789Z,8.90
2018-09-03T03:36:10.920Z,14.37
2018-09-03T03:38:38.905Z,10.30
2018-09-03T03:41:06.982Z,9.27
2018-09-03T03:43:34.966Z,9.03
2018-09-03T03:46:02.969Z,9.77
2018-09-03T03:48:31.032Z,8.73
2018-09-03T03:50:59.087Z,8.00
2018-09-03T03:53:27.081Z,8.53
2018-09-03T03:55:55.150Z,12.20
2018-09-03T03:58:23.223Z,8.23
2018-09-03T04:00:51.298Z,8.93
2018-09-03T04:03:19.316Z,11.00
2018-09-03T04:05:47.400Z,11.50
2018-09-03T04:08:15.437Z,10.03
2018-09-03T04:10:43.496Z,11.70
2018-09-03T04:13:11.518Z,14.40
2018-09-03T04:15:39.540Z,11.23
2018-09-03T04:18:07.583Z,15.77
2018-09-03T04:20:35.589Z,9.50
2018-09-03T04:23:03.671Z,11.30
2018-09-03T04:25:31.602Z,11.93
2018-09-03T04:27:59.601Z,9.23
2018-09-03T04:30:27.585Z,8.93
2018-09-03T04:32:55.929Z,12.60
2018-09-03T04:35:23.951Z,13.23
2018-09-03T04:37:51.966Z,13.50
2018-09-03T04:40:19.989Z,10.97
2018-09-03T04:42:48.022Z,11.07
2018-09-03T04:45:16.181Z,19.13
2018-09-03T04:47:44.218Z,11.47
2018-09-03T04:50:12.242Z,10.33
2018-09-03T04:52:40.249Z,11.37
2018-09-03T04:55:08.308Z,10.07
2018-09-03T04:57:36.402Z,9.47
2018-09-03T05:00:05.200Z,10.43
2018-09-03T05:02:33.222Z,14.13
2018-09-03T05:05:01.224Z,11.27
2018-09-03T05:07:29.281Z,14.33
2018-09-03T05:09:57.368Z,14.43
2018-09-03T05:12:25.435Z,10.10
2018-09-03T05:14:53.420Z,8.50
2018-09-03T05:17:21.459Z,10.10
2018-09-03T05:19:49.461Z,18.53
2018-09-03T05:22:17.565Z,12.40
2018-09-03T05:24:45.611Z,11.63
2018-09-03T05:27:13.677Z,10.73
2018-09-03T05:29:41.757Z,11.30
2018-09-03T05:32:09.841Z,12.33
2018-09-03T05:34:37.827Z,10.53
2018-09-03T05:37:05.897Z,10.30
2018-09-03T05:39:33.909Z,10.30
2018-09-03T05:42:02.028Z,11.60
2018-09-03T05:44:30.062Z,14.33
2018-09-03T05:46:58.052Z,14.33
2018-09-03T05:49:26.064Z,11.60
2018-09-03T05:51:54.123Z,10.90
2018-09-03T05:54:22.145Z,17.30
2018-09-03T05:56:50.147Z,8.63
2018-09-03T05:59:18.296Z,10.43
2018-09-03T06:01:46.337Z,12.30
2018-09-03T06:04:14.479Z,22.97
2018-09-03T06:06:42.488Z,8.67
2018-09-03T06:09:11.935Z,12.13
2018-09-03T06:11:40.210Z,15.90
2018-09-03T06:14:08.356Z,10.43
2018-09-03T06:16:36.380Z,7.87
2018-09-03T06:19:04.388Z,13.73
2018-09-03T06:21:32.450Z,10.27
2018-09-03T06:24:00.636Z,9.47
2018-09-03T06:26:28.620Z,8.00
2018-09-03T06:28:56.647Z,11.93
2018-09-03T06:31:24.701Z,8.53
2018-09-03T06:33:52.701Z,11.00
2018-09-03T06:36:20.711Z,12.13
2018-09-03T06:38:48.716Z,9.47
2018-09-03T06:41:16.773Z,8.27
2018-09-03T06:43:44.769Z,8.53
2018-09-03T06:46:12.810Z,5.70
2018-09-03T06:48:40.822Z,8.20
2018-09-03T06:51:08.828Z,6.00
2018-09-03T06:53:36.878Z,10.63
2018-09-03T06:56:04.840Z,12.10
2018-09-03T06:58:32.857Z,9.10
2018-09-03T07:01:00.845Z,6.43
2018-09-03T07:03:28.869Z,6.20
2018-09-03T07:05:56.873Z,7.30
2018-09-03T07:08:24.943Z,8.13
2018-09-03T07:10:52.974Z,11.93
2018-09-03T07:13:20.955Z,6.80
2018-09-03T07:15:48.981Z,13.20
2018-09-03T07:18:16.997Z,7.10
2018-09-03T07:20:45.012Z,8.30
2018-09-03T07:23:13.025Z,7.60
2018-09-03T07:25:41.099Z,8.90
2018-09-03T07:28:09.117Z,11.30
2018-09-03T07:30:37.125Z,7.73
2018-09-03T07:33:05.335Z,11.70
2018-09-03T07:35:33.400Z,7.00
2018-09-03T07:38:01.330Z,6.40
2018-09-03T07:40:29.355Z,9.80
2018-09-03T07:42:57.398Z,7.50
2018-09-03T07:45:25.418Z,9.30
2018-09-03T07:47:53.428Z,7.37
2018-09-03T07:50:21.473Z,11.00
2018-09-03T07:52:49.500Z,8.97
2018-09-03T07:55:17.549Z,9.37
2018-09-03T07:57:45.582Z,10.23
2018-09-03T08:00:13.814Z,8.10
2018-09-03T08:02:41.864Z,10.90
2018-09-03T08:05:09.896Z,7.60
2018-09-03T08:07:37.936Z,8.90
2018-09-03T08:10:06.580Z,8.53
2018-09-03T08:12:34.585Z,13.97
2018-09-03T08:15:02.647Z,7.90
2018-09-03T08:17:30.697Z,11.20
2018-09-03T08:19:58.776Z,11.70
2018-09-03T08:22:26.749Z,7.77
2018-09-03T08:24:54.753Z,9.90
2018-09-03T08:27:22.744Z,8.77
2018-09-03T08:29:50.763Z,10.57
2018-09-03T08:32:18.777Z,10.30
2018-09-03T08:34:46.840Z,10.70
2018-09-03T08:37:14.889Z,8.80
2018-09-03T08:39:42.909Z,8.50
2018-09-03T08:42:11.137Z,7.90
2018-09-03T08:44:39.288Z,14.50
2018-09-03T08:47:07.457Z,8.17
2018-09-03T08:49:35.472Z,9.33
2018-09-03T08:52:03.513Z,10.20
2018-09-03T08:54:31.512Z,12.80
2018-09-03T08:56:59.562Z,10.23
2018-09-03T08:59:27.553Z,9.80
2018-09-03T09:01:55.585Z,13.20
2018-09-03T09:04:23.588Z,9.80
2018-09-03T09:06:51.617Z,10.17
2018-09-03T09:09:19.630Z,13.33
2018-09-03T09:11:47.654Z,15.77
2018-09-03T09:14:15.629Z,12.10
2018-09-03T09:16:43.661Z,13.40
2018-09-03T09:19:11.652Z,16.13
2018-09-03T09:21:39.686Z,11.10
2018-09-03T09:24:07.769Z,9.63
2018-09-03T09:26:35.811Z,10.50
2018-09-03T09:29:03.809Z,14.20
2018-09-03T09:31:31.789Z,11.20
2018-09-03T09:34:00.212Z,10.73
2018-09-03T09:36:28.219Z,14.40
2018-09-03T09:38:56.214Z,12.00
2018-09-03T09:41:24.217Z,13.17
2018-09-03T09:43:52.216Z,12.53
2018-09-03T09:46:20.227Z,11.70
2018-09-03T09:48:48.248Z,11.40
2018-09-03T09:51:16.263Z,12.43
2018-09-03T09:53:44.368Z,13.80
2018-09-03T09:56:12.396Z,10.93
2018-09-03T09:58:40.397Z,11.00
2018-09-03T10:01:13.793Z,11.63
2018-09-03T10:03:41.788Z,11.70
2018-09-03T10:06:09.805Z,21.97
2018-09-03T10:08:37.793Z,14.23
2018-09-03T10:11:05.936Z,12.87
2018-09-03T10:13:33.945Z,16.73
2018-09-03T10:16:01.948Z,11.67
2018-09-03T10:18:29.939Z,13.43
2018-09-03T10:20:57.968Z,12.47
2018-09-03T10:23:25.968Z,21.83
2018-09-03T10:25:53.976Z,13.43
2018-09-03T10:28:21.969Z,16.80
2018-09-03T10:30:49.957Z,13.53
2018-09-03T10:33:17.961Z,20.00
2018-09-03T10:35:45.964Z,16.37
2018-09-03T10:38:13.994Z,17.80
2018-09-03T10:40:41.961Z,11.43
2018-09-03T10:43:09.976Z,13.23
2018-09-03T10:45:42.157Z,14.17
2018-09-03T10:48:10.165Z,17.07
2018-09-03T10:50:38.159Z,13.40
2018-09-03T10:53:06.220Z,20.80
2018-09-03T10:55:34.208Z,16.57
2018-09-03T10:58:02.398Z,20.30
2018-09-03T11:00:30.386Z,18.93
2018-09-03T11:02:58.414Z,13.50
2018-09-03T11:05:26.430Z,12.10
2018-09-03T11:07:54.475Z,13.10
2018-09-03T11:10:22.476Z,12.40
2018-09-03T11:12:50.529Z,10.77
2018-09-03T11:15:18.570Z,20.27
2018-09-03T11:17:46.611Z,14.93
2018-09-03T11:20:19.189Z,12.73
2018-09-03T11:22:47.220Z,11.23
2018-09-03T11:25:15.292Z,14.43
2018-09-03T11:27:43.412Z,36.57
2018-09-03T11:30:11.457Z,20.23
2018-09-03T11:32:39.735Z,13.40
2018-09-03T11:35:07.822Z,11.53
2018-09-03T11:37:35.873Z,11.20
2018-09-03T11:40:03.928Z,11.13
2018-09-03T11:42:32.150Z,13.10
2018-09-03T11:45:00.164Z,14.27
2018-09-03T11:47:28.533Z,13.60
2018-09-03T11:49:56.549Z,15.47
2018-09-03T11:52:24.572Z,11.73
2018-09-03T11:54:52.577Z,15.93
2018-09-03T11:57:20.597Z,11.40
2018-09-03T11:59:48.676Z,12.00
2018-09-03T12:02:16.704Z,12.30
2018-09-03T12:04:44.777Z,17.10
2018-09-03T12:07:12.913Z,13.30
2018-09-03T12:09:40.966Z,12.73
2018-09-03T12:12:08.972Z,17.73
2018-09-03T12:14:39.576Z,11.87
2018-09-03T12:17:07.752Z,12.47
2018-09-03T12:19:35.852Z,12.10
2018-09-03T12:22:03.857Z,13.90
2018-09-03T12:24:31.981Z,11.17
2018-09-03T12:27:00.009Z,14.40
2018-09-03T12:29:28.062Z,15.77
2018-09-03T12:31:56.124Z,12.23
2018-09-03T12:34:24.165Z,12.17
2018-09-03T12:36:52.221Z,15.80
2018-09-03T12:39:20.269Z,14.97
2018-09-03T12:41:48.303Z,10.93
2018-09-03T12:44:16.301Z,15.47
2018-09-03T12:46:44.326Z,10.50
2018-09-03T12:49:12.384Z,18.93
2018-09-03T12:51:40.431Z,14.57
2018-09-03T12:54:08.621Z,19.57
2018-09-03T12:56:36.684Z,15.80
2018-09-03T12:59:04.769Z,10.93
2018-09-03T13:01:32.932Z,14.30
2018-09-03T13:04:00.844Z,13.83
2018-09-03T13:06:28.876Z,11.70
2018-09-03T13:08:56.895Z,12.63
2018-09-03T13:11:24.920Z,20.57
2018-09-03T13:13:52.917Z,14.00
2018-09-03T13:16:20.940Z,14.80
2018-09-03T13:18:49.038Z,10.60
2018-09-03T13:21:17.038Z,15.30
2018-09-03T13:23:45.377Z,11.13
2018-09-03T13:26:13.413Z,15.13
2018-09-03T13:28:41.433Z,12.20
2018-09-03T13:31:09.441Z,11.90
2018-09-03T13:33:37.605Z,13.97
2018-09-03T13:36:05.679Z,12.97
2018-09-03T13:38:33.709Z,20.00
2018-09-03T13:41:02.029Z,11.33
2018-09-03T13:43:30.176Z,13.00
2018-09-03T13:45:58.314Z,14.17
2018-09-03T13:48:26.298Z,16.60
2018-09-03T13:50:54.454Z,21.10
2018-09-03T13:53:22.437Z,15.60
2018-09-03T13:55:50.441Z,13.90
2018-09-03T13:58:18.470Z,13.00
2018-09-03T14:00:46.498Z,13.20
2018-09-03T14:03:14.728Z,15.00
2018-09-03T14:05:42.733Z,15.57
2018-09-03T14:08:10.729Z,16.37
2018-09-03T14:10:38.760Z,12.00
2018-09-03T14:13:06.992Z,13.13
2018-09-03T14:15:35.066Z,11.60
2018-09-03T14:18:03.106Z,13.93
2018-09-03T14:20:32.429Z,12.03
2018-09-03T14:23:00.409Z,14.70
2018-09-03T14:25:28.459Z,10.30
2018-09-03T14:27:56.572Z,9.53
2018-09-03T14:30:24.563Z,12.63
2018-09-03T14:32:52.564Z,12.33
2018-09-03T14:35:20.560Z,13.03
2018-09-03T14:37:48.557Z,13.00
2018-09-03T14:40:16.573Z,19.23
2018-09-03T14:42:44.656Z,10.13
2018-09-03T14:45:12.680Z,12.33
2018-09-03T14:47:40.612Z,13.80
2018-09-03T14:50:08.628Z,13.43
2018-09-03T14:52:36.768Z,12.17
2018-09-03T14:55:04.833Z,11.83
2018-09-03T14:57:32.960Z,15.43
2018-09-03T15:00:01.014Z,13.10
2018-09-03T15:02:29.065Z,15.13
2018-09-03T15:04:57.013Z,13.83
2018-09-03T15:07:25.004Z,11.47
2018-09-03T15:09:52.996Z,12.00
2018-09-03T15:12:21.005Z,16.43
2018-09-03T15:14:49.039Z,15.17
2018-09-03T15:17:16.994Z,13.13
2018-09-03T15:19:45.009Z,15.30
2018-09-03T15:22:13.012Z,11.97
2018-09-03T15:24:41.031Z,12.07
2018-09-03T15:27:09.037Z,11.10
2018-09-03T15:29:37.021Z,11.90
2018-09-03T15:32:05.057Z,11.67
2018-09-03T15:34:33.169Z,10.73
2018-09-03T15:37:01.180Z,15.33
2018-09-03T15:39:29.196Z,11.67
2018-09-03T15:41:57.527Z,16.20
2018-09-03T15:44:25.526Z,17.90
2018-09-03T15:46:53.697Z,11.37
2018-09-03T15:49:21.689Z,14.63
2018-09-03T15:51:49.695Z,14.07
2018-09-03T15:54:17.733Z,14.23
2018-09-03T15:56:45.740Z,14.50
2018-09-03T15:59:13.798Z,12.73
2018-09-03T16:01:41.809Z,12.20
2018-09-03T16:04:09.841Z,14.47
2018-09-03T16:06:37.832Z,12.17
2018-09-03T16:09:08.587Z,11.90
2018-09-03T16:11:36.836Z,10.97
2018-09-03T16:14:04.881Z,14.10
2018-09-03T16:16:32.957Z,10.77
2018-09-03T16:19:00.986Z,10.50
2018-09-03T16:21:29.037Z,15.50
2018-09-03T16:23:57.078Z,13.60
2018-09-03T16:26:25.105Z,12.53
2018-09-03T16:28:53.205Z,11.60
2018-09-03T16:31:21.187Z,13.63
2018-09-03T16:33:49.197Z,10.13
2018-09-03T16:36:17.214Z,10.70
2018-09-03T16:38:45.435Z,16.90
2018-09-03T16:41:13.458Z,13.33
2018-09-03T16:43:41.617Z,9.60
2018-09-03T16:46:09.653Z,15.90
2018-09-03T16:48:37.732Z,10.83
2018-09-03T16:51:05.990Z,10.93
2018-09-03T16:53:34.032Z,11.43
2018-09-03T16:56:02.158Z,11.20
2018-09-03T16:58:30.209Z,9.83
2018-09-03T17:00:58.259Z,13.53
2018-09-03T17:03:26.233Z,12.17
2018-09-03T17:05:54.240Z,9.63
2018-09-03T17:08:22.310Z,10.83
2018-09-03T17:10:50.284Z,10.07
2018-09-03T17:13:18.331Z,13.70
2018-09-03T17:15:46.345Z,10.80
2018-09-03T17:18:14.365Z,13.00
2018-09-03T17:20:42.389Z,15.50
2018-09-03T17:23:10.514Z,12.03
2018-09-03T17:25:38.519Z,13.33
2018-09-03T17:28:06.625Z,16.87
2018-09-03T17:30:34.652Z,11.57
2018-09-03T17:33:02.897Z,11.63
2018-09-03T17:35:31.035Z,12.33
2018-09-03T17:37:59.112Z,17.77
2018-09-03T17:40:27.181Z,10.77
2018-09-03T17:42:55.173Z,14.20
2018-09-03T17:45:23.200Z,12.10
2018-09-03T17:47:51.225Z,14.80
2018-09-03T17:50:19.245Z,11.73
2018-09-03T17:52:47.312Z,11.07
2018-09-03T17:55:15.519Z,14.93
2018-09-03T17:57:43.549Z,16.57
2018-09-03T18:00:11.562Z,15.37
2018-09-03T18:02:39.744Z,15.00
2018-09-03T18:05:07.797Z,16.10
2018-09-03T18:07:36.006Z,13.33
2018-09-03T18:10:04.037Z,13.03
2018-09-03T18:12:32.187Z,22.43
2018-09-03T18:15:00.213Z,15.00
2018-09-03T18:17:28.234Z,11.87
2018-09-03T18:19:56.421Z,11.20
2018-09-03T18:22:24.453Z,16.50
2018-09-03T18:24:52.529Z,12.57
2018-09-03T18:27:20.545Z,19.60
2018-09-03T18:29:48.620Z,18.43
2018-09-03T18:32:16.775Z,19.00
2018-09-03T18:34:44.800Z,15.80
2018-09-03T18:37:12.998Z,12.87
2018-09-03T18:39:40.945Z,21.10
2018-09-03T18:42:09.159Z,20.37
2018-09-03T18:44:38.264Z,14.07
2018-09-03T18:47:06.398Z,16.50
2018-09-03T18:49:34.424Z,12.50
2018-09-03T18:52:02.471Z,13.80
2018-09-03T18:54:30.513Z,12.80
2018-09-03T18:56:58.528Z,15.80
2018-09-03T18:59:26.545Z,21.50
2018-09-03T19:01:54.559Z,17.50
2018-09-03T19:04:22.692Z,14.77
2018-09-03T19:06:50.721Z,15.50
2018-09-03T19:09:18.742Z,17.50
2018-09-03T19:11:46.801Z,13.13
2018-09-03T19:14:14.841Z,24.30
2018-09-03T19:16:42.914Z,16.93
2018-09-03T19:19:10.974Z,17.60
2018-09-03T19:21:38.994Z,14.77
2018-09-03T19:24:07.304Z,13.83
2018-09-03T19:26:35.297Z,14.03
2018-09-03T19:29:03.312Z,14.90
2018-09-03T19:31:31.347Z,14.30
2018-09-03T19:33:59.464Z,25.13
2018-09-03T19:36:27.503Z,16.43
2018-09-03T19:38:56.023Z,15.87
2018-09-03T19:41:24.046Z,15.50
2018-09-03T19:43:52.124Z,19.03
2018-09-03T19:46:20.357Z,31.40
2018-09-03T19:48:48.665Z,16.20
2018-09-03T19:51:16.708Z,15.30
2018-09-03T19:53:44.781Z,20.80
2018-09-03T19:56:12.914Z,15.40
2018-09-03T19:58:41.048Z,22.83
2018-09-03T20:01:09.084Z,19.17
2018-09-03T20:03:37.262Z,12.70
2018-09-03T20:06:05.288Z,15.07
2018-09-03T20:08:33.897Z,16.70
2018-09-03T20:11:01.954Z,16.00
2018-09-03T20:13:30.172Z,20.90
2018-09-03T20:15:58.436Z,17.63
2018-09-03T20:18:26.436Z,17.13
2018-09-03T20:20:54.464Z,14.73
2018-09-03T20:23:22.565Z,18.93
2018-09-03T20:25:50.537Z,15.43
2018-09-03T20:28:19.665Z,18.67
2018-09-03T20:30:47.665Z,18.20
2018-09-03T20:33:20.131Z,26.80
2018-09-03T20:35:48.454Z,18.20
2018-09-03T20:38:16.470Z,15.17
2018-09-03T20:40:45.706Z,16.03
2018-09-03T20:43:13.772Z,26.07
2018-09-03T20:45:41.846Z,15.20
2018-09-03T20:48:09.857Z,15.57
2018-09-03T20:50:37.999Z,16.10
2018-09-03T20:53:06.032Z,19.37
2018-09-03T20:55:34.044Z,17.50
2018-09-03T20:58:02.044Z,18.40
2018-09-03T21:00:30.037Z,13.63
2018-09-03T21:02:58.240Z,12.30
2018-09-03T21:05:26.363Z,14.60
2018-09-03T21:07:54.480Z,16.13
2018-09-03T21:10:22.524Z,15.20
2018-09-03T21:12:50.612Z,12.70
2018-09-03T21:15:18.617Z,20.03
2018-09-03T21:17:46.653Z,12.43
2018-09-03T21:20:14.944Z,18.23
2018-09-03T21:22:42.952Z,12.53
2018-09-03T21:25:10.969Z,20.37
2018-09-03T21:27:39.024Z,19.60
2018-09-03T21:30:07.640Z,12.17
2018-09-03T21:32:35.652Z,14.10
2018-09-03T21:35:04.145Z,15.03
2018-09-03T21:37:32.231Z,18.33
2018-09-03T21:40:00.267Z,15.00
2018-09-03T21:42:28.260Z,11.90
2018-09-03T21:44:56.274Z,13.57
2018-09-03T21:47:24.385Z,16.23
2018-09-03T21:49:52.437Z,15.03
2018-09-03T21:52:20.908Z,11.60
2018-09-03T21:54:48.928Z,17.67
2018-09-03T21:57:17.967Z,14.47
2018-09-03T21:59:45.980Z,14.73
2018-09-03T22:02:13.982Z,12.20
2018-09-03T22:04:42.794Z,11.80
2018-09-03T22:07:11.250Z,14.57
2018-09-03T22:09:39.380Z,12.93
2018-09-03T22:12:07.622Z,10.87
2018-09-03T22:14:35.670Z,14.50
2018-09-03T22:17:04.766Z,15.57
2018-09-03T22:19:32.826Z,11.03
2018-09-03T22:22:00.830Z,12.77
2018-09-03T22:24:28.833Z,12.90
2018-09-03T22:26:56.884Z,10.90
2018-09-03T22:29:24.902Z,12.90
2018-09-03T22:31:52.877Z,11.23
2018-09-03T22:34:20.880Z,8.90
2018-09-03T22:36:49.005Z,10.43
2018-09-03T22:39:17.033Z,10.20
2018-09-03T22:41:45.037Z,19.00
2018-09-03T22:44:13.041Z,15.07
2018-09-03T22:46:41.068Z,19.40
2018-09-03T22:49:09.181Z,11.27
2018-09-03T22:51:37.341Z,11.30
2018-09-03T22:54:05.526Z,12.43
2018-09-03T22:56:33.537Z,12.50
2018-09-03T22:59:01.768Z,12.47
2018-09-03T23:01:29.758Z,13.43
2018-09-03T23:03:57.812Z,14.50
2018-09-03T23:06:25.824Z,11.40
2018-09-03T23:08:53.870Z,8.93
2018-09-03T23:11:22.007Z,12.73
2018-09-03T23:13:49.925Z,11.67
2018-09-03T23:16:17.976Z,12.10
2018-09-03T23:18:45.988Z,11.30
2018-09-03T23:21:14.087Z,14.00
2018-09-03T23:23:42.095Z,13.43
2018-09-03T23:26:10.124Z,12.20
2018-09-03T23:28:38.159Z,11.80
2018-09-03T23:31:06.292Z,9.30
2018-09-03T23:33:34.316Z,9.60
2018-09-03T23:36:02.512Z,10.40
2018-09-03T23:38:30.508Z,10.80
2018-09-03T23:40:58.510Z,9.33
2018-09-03T23:43:26.556Z,12.17
2018-09-03T23:45:54.597Z,14.17
2018-09-03T23:48:22.675Z,8.23
2018-09-03T23:50:50.701Z,11.07
2018-09-03T23:53:18.721Z,9.13
2018-09-03T23:55:46.761Z,9.10
2018-09-03T23:58:14.762Z,12.23
